Time;durP1;ratioP1;P1;durP2;ratioP2;P2;SDS_P1;SDS_P2;PMS_P1;PMS_P2;Temp;Humidity;BMP_temperature;BMP_pressure;BME280_temperature;BME280_humidity;BME280_pressure;Samples;Min_cycle;Max_cycle;Signal;HPM_P1;HPM_P2
2024/02/03 00:00:37;;;;;;;10.65;4.68;;;;;;;;;;4937732;29;20106;-83
2024/02/03 00:03:03;;;;;;;13.60;5.22;;;;;;;;;;4939019;29;20130;-81
2024/02/03 00:05:29;;;;;;;15.60;5.00;;;;;;;;;;4939634;29;20058;-82
2024/02/03 00:07:55;;;;;;;9.27;4.90;;;;;;;;;;4971946;28;20035;-82
2024/02/03 00:10:21;;;;;;;14.25;4.97;;;;;;;;;;4941188;29;20063;-83
2024/02/03 00:12:47;;;;;;;16.17;5.85;;;;;;;;;;4944289;29;20028;-83
2024/02/03 00:15:13;;;;;;;11.60;4.53;;;;;;;;;;4958190;29;20047;-83
2024/02/03 00:17:39;;;;;;;11.93;4.57;;;;;;;;;;4958293;29;20046;-81
2024/02/03 00:20:07;;;;;;;10.80;4.85;;;;;;;;;;4938673;29;20043;-81
2024/02/03 00:22:34;;;;;;;10.02;4.47;;;;;;;;;;4951326;29;20442;-82
2024/02/03 00:25:00;;;;;;;12.48;5.40;;;;;;;;;;4948547;29;20090;-82
2024/02/03 00:27:26;;;;;;;14.38;5.57;;;;;;;;;;4932252;29;20582;-82
2024/02/03 00:29:52;;;;;;;12.65;6.20;;;;;;;;;;4965782;29;20538;-82
2024/02/03 00:32:18;;;;;;;14.70;6.60;;;;;;;;;;4930889;29;20039;-81
2024/02/03 00:34:46;;;;;;;10.10;5.10;;;;;;;;;;4930410;29;20035;-81
2024/02/03 00:37:12;;;;;;;12.40;5.28;;;;;;;;;;4932059;29;20416;-82
2024/02/03 00:39:41;;;;;;;11.18;5.70;;;;;;;;;;4930182;29;20042;-82
2024/02/03 00:42:07;;;;;;;;;;;;;;;;;;4932192;29;20212;-81
2024/02/03 00:44:33;;;;;;;10.57;5.10;;;;;;;;;;4946520;29;19911;-81
2024/02/03 00:46:59;;;;;;;12.43;6.20;;;;;;;;;;4931182;29;20506;-81
2024/02/03 00:49:26;;;;;;;12.23;5.40;;;;;;;;;;4949904;29;20116;-83
2024/02/03 00:51:52;;;;;;;13.73;6.05;;;;;;;;;;4935531;29;20110;-83
2024/02/03 00:54:20;;;;;;;17.83;6.80;;;;;;;;;;4950736;29;20035;-82
2024/02/03 00:56:46;;;;;;;15.90;6.47;;;;;;;;;;4948439;29;20035;-81
2024/02/03 00:59:11;;;;;;;12.23;6.05;;;;;;;;;;4948359;29;20039;-81
2024/02/03 01:01:37;;;;;;;14.40;6.82;;;;;;;;;;4947526;29;20403;-81
2024/02/03 01:04:04;;;;;;;13.95;6.35;;;;;;;;;;4947095;29;20030;-82
2024/02/03 01:06:31;;;;;;;12.17;5.97;;;;;;;;;;4933208;29;20043;-81
2024/02/03 01:08:57;;;;;;;12.30;5.80;;;;;;;;;;4965685;29;20038;-81
2024/02/03 01:11:23;;;;;;;13.30;7.07;;;;;;;;;;4928558;29;20036;-82
2024/02/03 01:13:49;;;;;;;14.20;6.00;;;;;;;;;;4914500;29;20134;-81
2024/02/03 01:16:15;;;;;;;14.00;6.88;;;;;;;;;;4961587;29;20031;-82
2024/02/03 01:18:42;;;;;;;16.15;6.72;;;;;;;;;;4934909;29;20042;-83
2024/02/03 01:21:20;;;;;;;12.75;6.78;;;;;;;;;;4951876;29;20042;-81
2024/02/03 01:23:48;;;;;;;16.45;6.53;;;;;;;;;;4952627;29;20110;-82
2024/02/03 01:26:15;;;;;;;13.00;6.43;;;;;;;;;;4954203;29;20039;-83
2024/02/03 01:28:44;;;;;;;15.15;6.75;;;;;;;;;;4942014;29;20046;-83
2024/02/03 01:31:11;;;;;;;12.55;6.05;;;;;;;;;;4955914;29;20041;-82
2024/02/03 01:33:37;;;;;;;16.85;6.05;;;;;;;;;;4955523;29;20024;-83
2024/02/03 01:36:04;;;;;;;14.38;6.35;;;;;;;;;;4940170;29;20890;-83
2024/02/03 01:38:33;;;;;;;14.13;5.88;;;;;;;;;;4938127;29;20039;-83
2024/02/03 01:40:59;;;;;;;11.45;6.28;;;;;;;;;;4953592;29;20039;-82
2024/02/03 01:43:27;;;;;;;16.58;6.60;;;;;;;;;;4939684;29;20028;-82
2024/02/03 01:45:54;;;;;;;11.75;6.13;;;;;;;;;;4961523;29;20035;-82
2024/02/03 01:48:20;;;;;;;12.27;6.53;;;;;;;;;;4947165;29;20047;-83
2024/02/03 01:50:49;;;;;;;9.63;5.32;;;;;;;;;;4980087;29;20125;-83
2024/02/03 01:53:20;;;;;;;12.15;6.00;;;;;;;;;;4960532;28;20035;-82
2024/02/03 01:55:48;;;;;;;11.23;5.32;;;;;;;;;;4923612;29;20039;-81
2024/02/03 01:58:15;;;;;;;11.02;6.47;;;;;;;;;;4969093;29;20042;-82
2024/02/03 02:00:41;;;;;;;12.98;5.72;;;;;;;;;;4957296;29;20059;-83
2024/02/03 02:03:08;;;;;;;14.55;6.05;;;;;;;;;;4946293;29;20019;-82
2024/02/03 02:05:37;;;;;;;13.93;6.22;;;;;;;;;;4946330;29;20434;-82
2024/02/03 02:08:03;;;;;;;9.73;5.13;;;;;;;;;;4963212;28;20094;-81
2024/02/03 02:10:32;;;;;;;10.45;6.22;;;;;;;;;;4993507;28;20517;-82
2024/02/03 02:12:59;;;;;;;11.40;5.60;;;;;;;;;;4945935;29;20066;-81
2024/02/03 02:15:25;;;;;;;10.52;5.22;;;;;;;;;;4977064;28;20039;-80
2024/02/03 02:18:00;;;;;;;11.68;5.60;;;;;;;;;;4946270;29;20031;-81
2024/02/03 02:20:28;;;;;;;12.05;5.03;;;;;;;;;;4993548;28;20034;-81
2024/02/03 02:22:54;;;;;;;14.32;4.78;;;;;;;;;;4977776;29;20479;-81
2024/02/03 02:25:19;;;;;;;10.45;5.25;;;;;;;;;;4946295;29;20047;-82
2024/02/03 02:27:45;;;;;;;10.18;5.80;;;;;;;;;;4976892;28;20031;-81
2024/02/03 02:30:14;;;;;;;9.40;5.22;;;;;;;;;;5067556;23;20062;-81
2024/02/03 02:32:40;;;;;;;9.00;5.00;;;;;;;;;;4941502;29;20059;-80
2024/02/03 02:35:05;;;;;;;12.07;6.30;;;;;;;;;;4925159;29;20024;-82
2024/02/03 02:37:33;;;;;;;12.23;5.20;;;;;;;;;;4940155;29;20040;-81
2024/02/03 02:39:58;;;;;;;13.70;4.75;;;;;;;;;;4939373;29;20043;-82
2024/02/03 02:42:27;;;;;;;9.38;4.78;;;;;;;;;;4929512;29;20039;-82
2024/02/03 02:44:53;;;;;;;8.85;4.82;;;;;;;;;;4959085;29;20039;-81
2024/02/03 02:47:19;;;;;;;12.63;5.10;;;;;;;;;;4944277;29;20125;-82
2024/02/03 02:49:46;;;;;;;12.48;5.53;;;;;;;;;;4928856;29;20431;-81
2024/02/03 02:52:15;;;;;;;10.82;5.18;;;;;;;;;;4945954;29;20427;-82
2024/02/03 02:54:45;;;;;;;10.15;5.43;;;;;;;;;;4960305;29;20035;-82
2024/02/03 02:57:10;;;;;;;11.60;4.82;;;;;;;;;;4945424;29;20442;-80
2024/02/03 02:59:45;;;;;;;12.38;5.53;;;;;;;;;;4963335;28;20043;-81
2024/02/03 03:02:11;;;;;;;10.57;5.15;;;;;;;;;;4961666;29;20038;-82
2024/02/03 03:04:37;;;;;;;10.07;5.40;;;;;;;;;;4962039;29;20023;-82
2024/02/03 03:07:03;;;;;;;14.07;6.18;;;;;;;;;;4926589;29;20035;-82
2024/02/03 03:09:30;;;;;;;10.05;5.00;;;;;;;;;;4916517;29;20044;-80
2024/02/03 03:11:57;;;;;;;10.82;5.78;;;;;;;;;;4951280;29;20032;-82
2024/02/03 03:14:22;;;;;;;12.98;5.15;;;;;;;;;;4936952;29;20042;-81
2024/02/03 03:16:56;;;;;;;10.10;5.43;;;;;;;;;;4934331;29;20463;-83
2024/02/03 03:19:22;;;;;;;11.65;5.60;;;;;;;;;;4965911;29;20059;-82
2024/02/03 03:21:51;;;;;;;14.13;5.90;;;;;;;;;;4929251;29;20687;-81
2024/02/03 03:24:22;;;;;;;12.48;5.57;;;;;;;;;;4912464;29;20039;-82
2024/02/03 03:26:51;;;;;;;10.40;5.68;;;;;;;;;;4927868;29;20032;-81
2024/02/03 03:29:19;;;;;;;10.82;6.13;;;;;;;;;;4926573;29;20040;-81
2024/02/03 03:31:44;;;;;;;10.73;5.18;;;;;;;;;;4942521;29;20403;-82
2024/02/03 03:34:15;;;;;;;9.73;5.68;;;;;;;;;;4942013;29;20034;-81
2024/02/03 03:36:44;;;;;;;11.85;5.70;;;;;;;;;;4941579;29;20032;-82
2024/02/03 03:39:10;;;;;;;10.50;5.18;;;;;;;;;;4926552;29;20036;-82
2024/02/03 03:41:36;;;;;;;10.40;6.05;;;;;;;;;;4911722;29;20111;-82
2024/02/03 03:44:02;;;;;;;10.30;5.00;;;;;;;;;;4946329;29;20074;-82
2024/02/03 03:46:30;;;;;;;9.75;5.50;;;;;;;;;;4940285;29;20059;-81
2024/02/03 03:48:56;;;;;;;11.10;5.85;;;;;;;;;;4940585;29;20126;-81
2024/02/03 03:51:24;;;;;;;12.32;4.97;;;;;;;;;;4943232;29;20036;-83
2024/02/03 03:53:50;;;;;;;13.45;6.25;;;;;;;;;;4944821;29;20047;-81
2024/02/03 03:56:18;;;;;;;12.93;4.97;;;;;;;;;;4961528;29;20533;-82
2024/02/03 03:58:45;;;;;;;10.93;5.38;;;;;;;;;;4966148;29;20049;-81
2024/02/03 04:01:22;;;;;;;9.82;5.00;;;;;;;;;;4962758;29;20039;-82
2024/02/03 04:03:51;;;;;;;9.48;5.13;;;;;;;;;;4966514;28;20050;-82
2024/02/03 04:06:36;;;;;;;10.73;5.57;;;;;;;;;;4961477;29;20027;-82
2024/02/03 04:09:10;;;;;;;12.00;5.18;;;;;;;;;;4961384;28;20035;-81
2024/02/03 04:11:42;;;;;;;11.70;5.80;;;;;;;;;;4944880;28;20047;-82
2024/02/03 04:14:10;;;;;;;10.85;5.32;;;;;;;;;;4961951;28;20047;-83
2024/02/03 04:16:38;;;;;;;10.63;5.45;;;;;;;;;;4962429;29;20027;-82
2024/02/03 04:19:07;;;;;;;9.07;4.93;;;;;;;;;;4946770;29;20058;-82
2024/02/03 04:21:33;;;;;;;9.35;5.50;;;;;;;;;;4978062;28;20039;-82
2024/02/03 04:24:00;;;;;;;12.48;5.75;;;;;;;;;;4931549;29;20450;-82
2024/02/03 04:26:26;;;;;;;11.90;5.28;;;;;;;;;;4939904;29;20094;-82
2024/02/03 04:28:53;;;;;;;15.13;6.28;;;;;;;;;;4979453;28;20054;-81
2024/02/03 04:31:19;;;;;;;9.05;4.70;;;;;;;;;;4947586;28;20050;-82
2024/02/03 04:33:46;;;;;;;12.20;5.60;;;;;;;;;;4963063;28;20082;-82
2024/02/03 04:36:13;;;;;;;16.05;7.38;;;;;;;;;;4947981;28;20066;-82
2024/02/03 04:38:38;;;;;;;10.18;5.43;;;;;;;;;;4962609;28;20040;-82
2024/02/03 04:41:04;;;;;;;10.77;5.85;;;;;;;;;;4945726;29;20047;-82
2024/02/03 04:43:30;;;;;;;13.70;6.10;;;;;;;;;;4976735;28;20035;-82
2024/02/03 04:45:57;;;;;;;18.35;6.47;;;;;;;;;;4937236;29;20063;-82
2024/02/03 04:48:23;;;;;;;20.83;6.70;;;;;;;;;;4944471;29;20042;-80
2024/02/03 04:50:49;;;;;;;13.13;5.82;;;;;;;;;;4951804;28;20061;-82
2024/02/03 04:53:15;;;;;;;14.02;6.50;;;;;;;;;;4962365;28;20027;-82
2024/02/03 04:55:40;;;;;;;14.38;5.90;;;;;;;;;;4950997;29;20031;-82
2024/02/03 04:58:07;;;;;;;16.88;5.85;;;;;;;;;;4944120;29;20024;-82
2024/02/03 05:00:35;;;;;;;20.70;7.65;;;;;;;;;;4930377;29;20038;-82
2024/02/03 05:03:00;;;;;;;14.32;6.65;;;;;;;;;;4932146;29;20443;-81
2024/02/03 05:05:27;;;;;;;15.63;6.10;;;;;;;;;;4947565;29;20027;-82
2024/02/03 05:07:55;;;;;;;12.88;5.75;;;;;;;;;;4963369;28;20550;-81
2024/02/03 05:10:21;;;;;;;12.20;5.80;;;;;;;;;;4930542;29;20070;-82
2024/02/03 05:12:47;;;;;;;11.95;5.00;;;;;;;;;;4962641;28;20066;-82
2024/02/03 05:15:17;;;;;;;10.75;5.53;;;;;;;;;;4931096;29;20035;-82
2024/02/03 05:17:43;;;;;;;10.30;5.03;;;;;;;;;;4930589;29;20070;-81
2024/02/03 05:20:09;;;;;;;10.65;4.68;;;;;;;;;;4944737;29;20035;-81
2024/02/03 05:22:36;;;;;;;14.45;6.00;;;;;;;;;;4961082;28;20146;-81
2024/02/03 05:25:02;;;;;;;11.98;4.65;;;;;;;;;;4930459;29;20042;-81
2024/02/03 05:27:31;;;;;;;9.23;4.50;;;;;;;;;;4932063;29;20042;-83
2024/02/03 05:29:58;;;;;;;8.55;4.72;;;;;;;;;;4963561;28;20042;-82
2024/02/03 05:32:26;;;;;;;12.88;4.97;;;;;;;;;;4933562;29;20043;-82
2024/02/03 05:34:52;;;;;;;13.02;5.63;;;;;;;;;;4919225;29;20038;-82
2024/02/03 05:37:22;;;;;;;10.77;4.97;;;;;;;;;;4968698;28;20035;-82
2024/02/03 05:39:49;;;;;;;7.50;3.42;;;;;;;;;;4954005;29;20035;-81
2024/02/03 05:42:15;;;;;;;7.72;3.15;;;;;;;;;;4930269;29;20130;-80
2024/02/03 05:44:40;;;;;;;6.95;3.75;;;;;;;;;;4961336;28;20070;-82
2024/02/03 05:47:08;;;;;;;8.98;4.40;;;;;;;;;;4945114;29;20115;-82
2024/02/03 05:49:34;;;;;;;11.20;4.30;;;;;;;;;;4929137;29;20063;-82
2024/02/03 05:55:46;;;;;;;7.82;3.88;;;;;;;;;;4999604;28;20058;-82
2024/02/03 05:58:11;;;;;;;7.63;3.33;;;;;;;;;;4967652;28;20375;-82
2024/02/03 06:00:37;;;;;;;14.48;4.35;;;;;;;;;;5000477;28;20038;-82
2024/02/03 06:03:06;;;;;;;9.93;4.40;;;;;;;;;;4967345;28;20030;-83
2024/02/03 06:05:32;;;;;;;10.57;4.38;;;;;;;;;;4999730;28;20117;-82
2024/02/03 06:07:58;;;;;;;12.70;5.05;;;;;;;;;;4967990;28;20065;-82
2024/02/03 06:10:25;;;;;;;7.00;3.47;;;;;;;;;;4986751;28;20042;-82
2024/02/03 06:12:50;;;;;;;8.65;3.85;;;;;;;;;;4975756;28;20031;-82
2024/02/03 06:15:16;;;;;;;9.55;4.28;;;;;;;;;;4979324;28;20535;-82
2024/02/03 06:17:43;;;;;;;9.60;4.05;;;;;;;;;;4996973;28;20137;-81
2024/02/03 06:20:09;;;;;;;6.78;3.60;;;;;;;;;;5007918;28;20037;-82
2024/02/03 06:22:35;;;;;;;7.45;3.58;;;;;;;;;;4975492;28;20050;-82
2024/02/03 06:25:01;;;;;;;6.13;3.50;;;;;;;;;;5004123;28;20050;-82
2024/02/03 06:27:33;;;;;;;6.13;3.20;;;;;;;;;;4979922;28;20045;-82
2024/02/03 06:29:59;;;;;;;6.15;2.65;;;;;;;;;;4995851;28;20030;-82
2024/02/03 06:32:25;;;;;;;6.85;3.15;;;;;;;;;;4981457;28;20085;-83
2024/02/03 06:34:53;;;;;;;6.75;3.08;;;;;;;;;;4969200;28;20374;-83
2024/02/03 06:37:21;;;;;;;6.25;3.20;;;;;;;;;;4987755;28;20125;-83
2024/02/03 06:39:46;;;;;;;4.28;2.60;;;;;;;;;;4971689;28;20073;-82
2024/02/03 06:42:17;;;;;;;6.53;3.20;;;;;;;;;;4986838;28;20026;-83
2024/02/03 06:44:47;;;;;;;4.78;2.67;;;;;;;;;;4967632;28;20030;-82
2024/02/03 06:47:16;;;;;;;5.03;2.65;;;;;;;;;;4999925;28;20031;-82
2024/02/03 06:49:46;;;;;;;5.32;2.70;;;;;;;;;;4966183;28;20069;-82
2024/02/03 06:52:12;;;;;;;3.95;2.30;;;;;;;;;;4963540;28;20034;-82
2024/02/03 06:54:38;;;;;;;5.75;2.58;;;;;;;;;;4946693;28;20042;-82
2024/02/03 06:57:15;;;;;;;7.18;3.05;;;;;;;;;;4962958;28;20038;-82
2024/02/03 06:59:41;;;;;;;4.40;2.75;;;;;;;;;;4961493;28;20038;-82
2024/02/03 07:02:07;;;;;;;5.53;2.55;;;;;;;;;;4964013;28;20062;-83
2024/02/03 07:07:46;;;;;;;4.90;2.28;;;;;;;;;;4964577;28;20199;-82
2024/02/03 07:10:14;;;;;;;5.95;2.42;;;;;;;;;;4956174;28;20028;-82
2024/02/03 07:12:40;;;;;;;4.82;2.33;;;;;;;;;;4991504;28;20517;-82
2024/02/03 07:15:06;;;;;;;4.47;2.15;;;;;;;;;;4982557;28;20034;-82
2024/02/03 07:17:36;;;;;;;4.20;2.00;;;;;;;;;;5017201;28;20053;-82
2024/02/03 07:20:02;;;;;;;6.63;2.35;;;;;;;;;;4986600;28;20038;-82
2024/02/03 07:22:28;;;;;;;4.05;1.98;;;;;;;;;;5003166;28;20115;-82
2024/02/03 07:24:54;;;;;;;5.32;2.25;;;;;;;;;;4986925;28;20022;-83
2024/02/03 07:27:20;;;;;;;4.28;2.30;;;;;;;;;;4992885;28;20031;-82
2024/02/03 07:29:46;;;;;;;3.55;1.83;;;;;;;;;;4963062;28;20481;-82
2024/02/03 07:32:11;;;;;;;4.30;2.28;;;;;;;;;;4979578;28;20041;-82
2024/02/03 07:34:43;;;;;;;5.28;2.40;;;;;;;;;;4962776;28;20463;-83
2024/02/03 07:37:09;;;;;;;4.20;1.95;;;;;;;;;;4979246;28;20034;-83
2024/02/03 07:39:38;;;;;;;5.55;2.10;;;;;;;;;;4980031;28;20026;-83
2024/02/03 07:42:03;;;;;;;;;;;;;;;;;;4966169;28;20031;-81
2024/02/03 07:44:31;;;;;;;4.43;2.10;;;;;;;;;;4961244;28;19917;-82
2024/02/03 07:46:57;;;;;;;5.28;2.30;;;;;;;;;;4959460;28;20189;-82
2024/02/03 07:49:24;;;;;;;3.35;1.70;;;;;;;;;;4945052;28;20067;-83
2024/02/03 07:51:52;;;;;;;4.13;1.90;;;;;;;;;;4944563;28;20069;-83
2024/02/03 07:54:18;;;;;;;3.92;1.80;;;;;;;;;;4955475;28;20062;-83
2024/02/03 07:56:43;;;;;;;4.43;2.05;;;;;;;;;;4978752;28;20030;-82
2024/02/03 07:59:09;;;;;;;3.97;2.05;;;;;;;;;;4978949;28;20026;-82
2024/02/03 08:01:35;;;;;;;3.92;1.90;;;;;;;;;;4995930;28;20645;-82
2024/02/03 08:04:01;;;;;;;5.13;2.05;;;;;;;;;;4963865;28;20046;-81
2024/02/03 08:06:26;;;;;;;4.88;1.90;;;;;;;;;;4979769;28;20030;-81
2024/02/03 08:08:52;;;;;;;4.47;1.70;;;;;;;;;;4965285;28;20089;-82
2024/02/03 08:11:17;;;;;;;4.05;1.88;;;;;;;;;;4979530;28;20437;-81
2024/02/03 08:13:43;;;;;;;3.97;1.83;;;;;;;;;;4978305;28;20049;-82
2024/02/03 08:16:13;;;;;;;5.50;2.33;;;;;;;;;;4979744;28;20088;-83
2024/02/03 08:18:43;;;;;;;3.42;1.83;;;;;;;;;;4980720;28;20027;-81
2024/02/03 08:21:09;;;;;;;3.90;1.60;;;;;;;;;;4984961;28;20099;-83
2024/02/03 08:23:36;;;;;;;3.70;1.60;;;;;;;;;;4989184;28;20031;-83
2024/02/03 08:26:02;;;;;;;3.08;1.50;;;;;;;;;;4970286;28;20035;-83
2024/02/03 08:28:31;;;;;;;3.97;1.73;;;;;;;;;;4954474;28;20057;-83
2024/02/03 08:30:56;;;;;;;;;;;;;;;;;;4954969;28;20037;-82
2024/02/03 08:33:22;;;;;;;4.03;1.90;;;;;;;;;;4953056;28;19910;-83
2024/02/03 08:35:50;;;;;;;4.20;2.00;;;;;;;;;;4983651;28;20030;-82
2024/02/03 08:38:15;;;;;;;6.53;1.88;;;;;;;;;;4966574;28;20042;-83
2024/02/03 08:40:50;;;;;;;2.80;1.55;;;;;;;;;;4984951;28;20122;-83
2024/02/03 08:43:18;;;;;;;4.90;1.70;;;;;;;;;;4969131;28;20035;-82
2024/02/03 08:45:45;;;;;;;3.72;1.30;;;;;;;;;;4955007;28;20046;-82
2024/02/03 08:48:12;;;;;;;5.63;1.90;;;;;;;;;;4971118;28;20042;-83
2024/02/03 08:50:48;;;;;;;2.90;1.45;;;;;;;;;;5001264;28;20041;-82
2024/02/03 08:53:15;;;;;;;4.72;1.60;;;;;;;;;;4961222;28;20073;-83
2024/02/03 08:55:42;;;;;;;3.00;1.30;;;;;;;;;;4991806;28;20133;-82
2024/02/03 08:58:08;;;;;;;3.15;1.45;;;;;;;;;;4965206;28;20122;-82
2024/02/03 09:00:34;;;;;;;3.33;1.55;;;;;;;;;;4952939;28;20162;-83
2024/02/03 09:03:00;;;;;;;3.40;1.67;;;;;;;;;;4999076;28;20046;-82
2024/02/03 09:05:25;;;;;;;2.53;1.30;;;;;;;;;;4989692;28;20520;-83
2024/02/03 09:07:52;;;;;;;3.95;1.77;;;;;;;;;;4964587;28;20049;-82
2024/02/03 09:10:18;;;;;;;3.22;1.70;;;;;;;;;;4996033;28;20050;-83
2024/02/03 09:12:46;;;;;;;2.78;1.38;;;;;;;;;;4978850;28;20580;-83
2024/02/03 09:15:12;;;;;;;3.70;1.50;;;;;;;;;;4964404;28;20049;-83
2024/02/03 09:17:39;;;;;;;3.67;1.42;;;;;;;;;;4980207;28;20280;-82
2024/02/03 09:20:05;;;;;;;3.42;1.50;;;;;;;;;;4964386;28;20125;-83
2024/02/03 09:22:31;;;;;;;2.78;1.23;;;;;;;;;;4963459;28;20533;-83
2024/02/03 09:24:57;;;;;;;4.80;1.52;;;;;;;;;;4965608;28;20110;-83
2024/02/03 09:27:22;;;;;;;2.90;1.40;;;;;;;;;;4980523;28;20030;-82
2024/02/03 09:29:51;;;;;;;3.85;1.65;;;;;;;;;;4979166;28;20040;-84
2024/02/03 09:32:17;;;;;;;3.65;1.48;;;;;;;;;;4979452;28;20609;-82
2024/02/03 09:34:53;;;;;;;2.30;1.17;;;;;;;;;;4963363;28;20022;-83
2024/02/03 09:37:22;;;;;;;3.17;1.20;;;;;;;;;;4963214;28;20038;-83
2024/02/03 09:39:53;;;;;;;2.08;1.13;;;;;;;;;;4983139;28;20038;-83
2024/02/03 09:42:23;;;;;;;3.38;1.20;;;;;;;;;;4984659;28;20057;-83
2024/02/03 09:44:51;;;;;;;4.20;1.25;;;;;;;;;;4991949;28;20421;-83
2024/02/03 09:47:19;;;;;;;4.05;1.30;;;;;;;;;;4981738;28;20038;-83
2024/02/03 09:49:50;;;;;;;3.47;1.40;;;;;;;;;;4960520;28;20049;-83
2024/02/03 09:52:26;;;;;;;4.05;1.52;;;;;;;;;;4978503;28;20030;-83
2024/02/03 09:54:59;;;;;;;2.65;1.35;;;;;;;;;;4986588;28;20042;-83
2024/02/03 09:57:36;;;;;;;3.88;1.50;;;;;;;;;;4972075;28;20023;-83
2024/02/03 10:00:12;;;;;;;3.55;1.33;;;;;;;;;;5019676;28;20061;-83
2024/02/03 10:02:38;;;;;;;5.20;1.10;;;;;;;;;;4988040;28;20485;-83
2024/02/03 10:05:11;;;;;;;2.35;1.25;;;;;;;;;;5003954;28;20034;-83
2024/02/03 10:07:39;;;;;;;4.18;1.40;;;;;;;;;;5007021;28;20038;-82
2024/02/03 10:10:09;;;;;;;4.40;1.38;;;;;;;;;;5017022;28;20075;-82
2024/02/03 10:12:35;;;;;;;2.10;1.00;;;;;;;;;;5006413;28;20030;-83
2024/02/03 10:15:10;;;;;;;2.33;1.00;;;;;;;;;;4967002;28;20034;-83
2024/02/03 10:17:38;;;;;;;2.17;1.13;;;;;;;;;;4990621;28;20037;-82
2024/02/03 10:20:05;;;;;;;2.08;1.00;;;;;;;;;;4964727;28;20033;-83
2024/02/03 10:22:36;;;;;;;8.07;1.25;;;;;;;;;;4984317;28;20076;-83
2024/02/03 10:25:08;;;;;;;3.92;1.35;;;;;;;;;;4982932;28;20073;-82
2024/02/03 10:27:36;;;;;;;3.38;1.30;;;;;;;;;;4982341;28;20437;-82
2024/02/03 10:30:05;;;;;;;2.75;1.10;;;;;;;;;;4968173;28;20069;-82
2024/02/03 10:32:31;;;;;;;4.10;1.40;;;;;;;;;;4966087;28;20030;-83
2024/02/03 10:35:02;;;;;;;1.90;1.00;;;;;;;;;;4982541;28;20034;-82
2024/02/03 10:37:36;;;;;;;1.50;0.80;;;;;;;;;;4982006;28;20100;-83
2024/02/03 10:40:03;;;;;;;2.55;1.00;;;;;;;;;;4982878;28;20033;-82
2024/02/03 10:42:33;;;;;;;2.15;0.98;;;;;;;;;;5002513;28;20022;-82
2024/02/03 10:45:01;;;;;;;3.72;1.08;;;;;;;;;;4964988;28;20113;-82
2024/02/03 10:47:35;;;;;;;3.45;0.98;;;;;;;;;;4965388;28;20030;-82
2024/02/03 10:50:09;;;;;;;2.97;1.15;;;;;;;;;;4964001;28;20101;-83
2024/02/03 10:52:42;;;;;;;1.58;0.80;;;;;;;;;;4966652;28;20038;-83
2024/02/03 10:55:15;;;;;;;5.38;1.08;;;;;;;;;;4970197;28;20069;-83
2024/02/03 10:57:46;;;;;;;2.38;1.20;;;;;;;;;;4983563;28;20040;-81
2024/02/03 11:00:15;;;;;;;2.33;1.15;;;;;;;;;;4979442;28;20561;-82
2024/02/03 11:02:51;;;;;;;1.80;1.00;;;;;;;;;;4963344;28;20035;-81
2024/02/03 11:05:17;;;;;;;1.92;1.05;;;;;;;;;;4967982;28;20109;-82
2024/02/03 11:07:46;;;;;;;;;;;;;;;;;;5000155;28;20106;-82
2024/02/03 11:10:13;;;;;;;3.13;0.63;;;;;;;;;;4985475;28;19953;-82
2024/02/03 11:12:40;;;;;;;;;;;;;;;;;;4985116;28;20056;-83
2024/02/03 11:15:25;;;;;;;2.72;1.08;;;;;;;;;;4995820;28;20387;-82
2024/02/03 11:17:54;;;;;;;1.88;0.80;;;;;;;;;;4993668;28;20034;-83
2024/02/03 11:20:22;;;;;;;2.88;0.63;;;;;;;;;;4979539;28;20023;-82
2024/02/03 11:22:53;;;;;;;1.25;0.75;;;;;;;;;;4979746;28;20038;-83
2024/02/03 11:25:22;;;;;;;;;;;;;;;;;;4997563;28;20453;-83
2024/02/03 11:27:48;;;;;;;1.60;0.73;;;;;;;;;;4996891;28;20346;-83
2024/02/03 11:30:15;;;;;;;3.22;0.80;;;;;;;;;;4982582;28;20506;-82
2024/02/03 11:32:42;;;;;;;1.33;0.70;;;;;;;;;;4981756;28;20375;-83
2024/02/03 11:35:14;;;;;;;1.67;0.80;;;;;;;;;;4999048;28;20660;-82
2024/02/03 11:37:43;;;;;;;1.40;0.70;;;;;;;;;;4963965;28;20089;-83
2024/02/03 11:40:12;;;;;;;2.63;0.70;;;;;;;;;;4991400;28;20127;-84
2024/02/03 11:42:43;;;;;;;1.33;0.65;;;;;;;;;;4966993;28;20034;-83
2024/02/03 11:45:34;;;;;;;1.77;0.90;;;;;;;;;;4982934;28;20093;-82
2024/02/03 11:48:04;;;;;;;2.25;0.85;;;;;;;;;;4964737;28;20035;-83
2024/02/03 11:50:30;;;;;;;2.53;0.70;;;;;;;;;;4965014;28;20121;-83
2024/02/03 11:53:01;;;;;;;2.25;0.70;;;;;;;;;;4973040;28;20072;-83
2024/02/03 11:55:27;;;;;;;2.03;0.93;;;;;;;;;;4962030;28;20070;-82
2024/02/03 11:58:00;;;;;;;1.88;0.70;;;;;;;;;;4981906;28;20057;-83
2024/02/03 12:00:29;;;;;;;1.85;0.80;;;;;;;;;;4991193;28;20482;-83
2024/02/03 12:02:57;;;;;;;1.67;0.90;;;;;;;;;;4980909;28;20026;-83
2024/02/03 12:05:30;;;;;;;2.85;0.90;;;;;;;;;;4977973;28;20109;-82
2024/02/03 12:08:02;;;;;;;2.90;0.95;;;;;;;;;;4951186;28;20057;-83
2024/02/03 12:10:35;;;;;;;6.50;0.73;;;;;;;;;;4963902;28;20034;-83
2024/02/03 12:13:02;;;;;;;0.88;0.50;;;;;;;;;;4963957;28;20030;-82
2024/02/03 12:15:28;;;;;;;2.95;0.68;;;;;;;;;;4963477;28;20512;-82
2024/02/03 12:17:57;;;;;;;1.15;0.50;;;;;;;;;;4980122;28;20022;-83
2024/02/03 12:20:27;;;;;;;1.85;0.80;;;;;;;;;;4967637;28;20066;-82
2024/02/03 12:22:56;;;;;;;5.28;0.75;;;;;;;;;;4975328;28;20042;-81
2024/02/03 12:25:31;;;;;;;1.65;0.55;;;;;;;;;;4962293;28;20046;-82
2024/02/03 12:27:57;;;;;;;0.90;0.57;;;;;;;;;;4958774;28;20042;-82
2024/02/03 12:30:23;;;;;;;1.42;0.57;;;;;;;;;;4953837;28;20054;-82
2024/02/03 12:32:52;;;;;;;2.30;0.75;;;;;;;;;;4979299;28;20031;-82
2024/02/03 12:35:22;;;;;;;1.70;0.60;;;;;;;;;;4979254;28;20027;-83
2024/02/03 12:37:51;;;;;;;3.65;0.70;;;;;;;;;;4978285;28;20031;-82
2024/02/03 12:41:03;;;;;;;1.17;0.60;;;;;;;;;;4979767;28;20097;-82
2024/02/03 12:44:34;;;;;;;1.00;0.57;;;;;;;;;;4994200;28;20061;-81
2024/02/03 12:47:47;;;;;;;1.48;0.60;;;;;;;;;;5015609;28;20041;-82
2024/02/03 13:00:40;;;;;;;1.33;0.73;;;;;;;;;;4930863;29;20048;-82
2024/02/03 13:03:09;;;;;;;1.15;0.60;;;;;;;;;;4921250;29;20149;-82
2024/02/03 13:05:38;;;;;;;2.45;0.77;;;;;;;;;;4932864;29;20035;-82
2024/02/03 13:08:04;;;;;;;1.02;0.50;;;;;;;;;;4955718;29;20046;-82
2024/02/03 13:10:33;;;;;;;1.35;0.63;;;;;;;;;;4906166;29;20040;-82
2024/02/03 13:13:04;;;;;;;0.80;0.40;;;;;;;;;;4937892;29;20078;-82
2024/02/03 13:15:36;;;;;;;2.28;0.70;;;;;;;;;;4941506;29;20031;-83
2024/02/03 13:18:07;;;;;;;1.75;0.50;;;;;;;;;;4942535;29;20035;-82
2024/02/03 13:20:43;;;;;;;1.23;0.55;;;;;;;;;;4944954;29;20059;-83
2024/02/03 13:23:12;;;;;;;1.02;0.43;;;;;;;;;;4959114;28;20030;-82
2024/02/03 13:25:43;;;;;;;0.68;0.38;;;;;;;;;;4948269;29;20134;-83
2024/02/03 13:28:20;;;;;;;1.85;0.70;;;;;;;;;;4963956;29;20106;-82
2024/02/03 13:30:56;;;;;;;0.93;0.50;;;;;;;;;;4938709;29;20051;-83
2024/02/03 13:33:25;;;;;;;1.17;0.63;;;;;;;;;;4930445;29;20023;-83
2024/02/03 13:35:53;;;;;;;0.90;0.50;;;;;;;;;;4932212;29;20510;-81
2024/02/03 13:38:20;;;;;;;2.67;0.60;;;;;;;;;;4930386;28;20039;-82
2024/02/03 13:40:56;;;;;;;;;;;;;;;;;;4943468;29;20095;-83
2024/02/03 13:43:31;;;;;;;3.08;0.70;;;;;;;;;;4932948;29;19910;-83
2024/02/03 13:46:07;;;;;;;0.73;0.40;;;;;;;;;;4917675;29;20035;-82
2024/02/03 13:48:45;;;;;;;1.75;0.60;;;;;;;;;;4922524;29;20055;-82
2024/02/03 13:51:15;;;;;;;1.35;0.55;;;;;;;;;;4930656;29;20027;-82
2024/02/03 13:53:44;;;;;;;1.10;0.60;;;;;;;;;;4920311;28;20035;-82
2024/02/03 13:56:12;;;;;;;1.70;0.70;;;;;;;;;;4929332;29;20090;-82
2024/02/03 13:58:42;;;;;;;1.00;0.47;;;;;;;;;;4925528;29;20047;-82
2024/02/03 14:01:09;;;;;;;0.90;0.43;;;;;;;;;;4924063;29;20048;-80
2024/02/03 14:04:03;;;;;;;0.80;0.40;;;;;;;;;;4939030;29;20039;-82
2024/02/03 14:06:31;;;;;;;0.68;0.40;;;;;;;;;;4925830;29;20051;-82
2024/02/03 14:08:58;;;;;;;0.30;0.20;;;;;;;;;;4955428;29;20525;-82
2024/02/03 14:11:26;;;;;;;1.60;0.40;;;;;;;;;;4910174;29;20051;-82
2024/02/03 14:13:59;;;;;;;2.08;0.63;;;;;;;;;;4926707;29;20083;-82
2024/02/03 14:16:25;;;;;;;1.35;0.70;;;;;;;;;;4927444;29;20432;-82
2024/02/03 14:18:54;;;;;;;1.60;0.60;;;;;;;;;;4929318;29;20062;-82
2024/02/03 14:21:20;;;;;;;2.50;0.60;;;;;;;;;;4926377;29;20138;-83
2024/02/03 14:23:47;;;;;;;0.82;0.50;;;;;;;;;;4942015;29;20367;-83
2024/02/03 14:26:25;;;;;;;3.78;0.77;;;;;;;;;;4910509;29;20499;-80
2024/02/03 14:28:51;;;;;;;2.42;0.63;;;;;;;;;;4925722;29;20067;-81
2024/02/03 14:31:24;;;;;;;2.40;0.70;;;;;;;;;;4908726;29;20105;-81
2024/02/03 14:33:58;;;;;;;1.15;0.63;;;;;;;;;;4923985;29;20043;-82
2024/02/03 14:36:29;;;;;;;1.58;0.60;;;;;;;;;;4926036;29;20091;-83
2024/02/03 14:38:56;;;;;;;;;;;;;;;;;;4946968;29;20063;-81
2024/02/03 14:41:22;;;;;;;3.08;0.85;;;;;;;;;;4928193;29;19910;-83
2024/02/03 14:43:53;;;;;;;2.58;1.17;;;;;;;;;;4944706;29;20042;-81
2024/02/03 14:46:24;;;;;;;1.98;0.85;;;;;;;;;;4940717;29;20031;-82
2024/02/03 14:49:04;;;;;;;4.00;0.98;;;;;;;;;;4932708;29;20027;-82
2024/02/03 14:51:44;;;;;;;1.45;0.68;;;;;;;;;;4925638;29;20039;-82
2024/02/03 14:54:19;;;;;;;1.63;0.90;;;;;;;;;;4955971;29;20035;-83
2024/02/03 14:56:57;;;;;;;1.67;0.90;;;;;;;;;;4909687;29;20039;-81
2024/02/03 14:59:36;;;;;;;1.98;0.98;;;;;;;;;;4907831;29;20040;-83
2024/02/03 15:02:09;;;;;;;1.67;0.80;;;;;;;;;;4943060;29;20032;-83
2024/02/03 15:04:43;;;;;;;2.22;0.90;;;;;;;;;;4924502;29;20107;-82
2024/02/03 15:07:20;;;;;;;1.45;0.85;;;;;;;;;;4940735;29;20399;-82